Sunday — SY7841 — position and weather

sailwx.info

Track history (hours):
 
Tides and Currents Weather Stations Pressure Air Temp Water Temp Dewpoint Dewpoint Depression Visibility Wind Speed Wind Dir Waves Ship Positions

Sunday

Last reported at 2018-Jun-25 00:30 UTC. Time now 2018-Jun-25 00:41 UTC.
Position N 37°56' E 023°39'.

Length 58 m; draft 3.4 m.

Type: Pleasure craft. MMSI: 240559000.

Date/timePositionNaut miles runAvg speedWind from/ knotsBaromVisibWave heightAir tempDewpointWater temp
2018-Jun-25 00:30N 37°56' E 023°39'0 0.0
2018-Jun-25 00:00N 37°56' E 023°39'0 0.0
2018-Jun-24 23:30N 37°56' E 023°39'0 0.0
2018-Jun-24 23:00N 37°56' E 023°39'0 0.0
2018-Jun-24 22:30N 37°56' E 023°39'0 0.0
2018-Jun-24 22:00N 37°56' E 023°39'0 0.0
2018-Jun-24 21:30N 37°56' E 023°39'0 0.0
2018-Jun-24 21:00N 37°56' E 023°39'0 0.0
2018-Jun-24 20:30N 37°56' E 023°39'0 0.0
2018-Jun-24 20:00N 37°56' E 023°39'0 0.0
2018-Jun-24 19:30N 37°56' E 023°39'0 0.0
2018-Jun-24 19:00N 37°56' E 023°39'0 0.0
2018-Jun-24 18:30N 37°56' E 023°39'0 0.0
2018-Jun-24 18:00N 37°56' E 023°39'0 0.0
2018-Jun-24 17:30N 37°56' E 023°39'0 0.0
2018-Jun-24 17:00N 37°56' E 023°39'0 0.0
2018-Jun-24 16:30N 37°56' E 023°39'0 0.1
2018-Jun-24 16:00N 37°56' E 023°39'3 6.4
2018-Jun-24 15:30N 37°53' E 023°38'714.9
2018-Jun-24 15:00N 37°46' E 023°35'714.3
2018-Jun-24 14:30N 37°40' E 023°29'1 0.1
2018-Jun-24 05:44N 37°40' E 023°28'314.2
2018-Jun-24 05:30N 37°37' E 023°30'17 1.4
2018-Jun-23 18:03N 37°21' E 023°27'4 0.1
2018-Jun-22 15:38N 37°25' E 023°29'214.6
2018-Jun-22 15:30N 37°25' E 023°31'713.8
2018-Jun-22 15:00N 37°31' E 023°35'714.7
2018-Jun-22 14:31N 37°39' E 023°35'714.7
2018-Jun-22 14:00N 37°46' E 023°37'714.4
2018-Jun-22 13:30N 37°53' E 023°39'3 5.9
2018-Jun-22 13:00N 37°56' E 023°39'0 0.0
2018-Jun-22 12:30N 37°56' E 023°39'0 0.0
2018-Jun-22 12:00N 37°56' E 023°39'0 0.0
2018-Jun-22 11:30N 37°56' E 023°39'0 0.0
2018-Jun-22 11:00N 37°56' E 023°39'0 0.0
2018-Jun-22 10:30N 37°56' E 023°39'0 0.0
2018-Jun-22 10:00N 37°56' E 023°39'0 0.0
2018-Jun-22 09:30N 37°56' E 023°39'0 0.0
2018-Jun-22 09:00N 37°56' E 023°39'0 0.0
2018-Jun-22 08:30N 37°56' E 023°39'0 0.0
2018-Jun-22 08:00N 37°56' E 023°39'0 0.0
2018-Jun-22 07:30N 37°56' E 023°39'0 0.0
2018-Jun-22 07:00N 37°56' E 023°39'0 0.0
2018-Jun-22 06:30N 37°56' E 023°39'0 0.0
2018-Jun-22 06:00N 37°56' E 023°39'0 0.0
2018-Jun-22 05:30N 37°56' E 023°39'0 0.0
2018-Jun-22 05:00N 37°56' E 023°39'0 0.0
2018-Jun-22 04:30N 37°56' E 023°39'0 0.0
2018-Jun-22 04:00N 37°56' E 023°39'0 0.0
2018-Jun-22 03:30N 37°56' E 023°39'0 0.0
2018-Jun-22 03:00N 37°56' E 023°39'0 0.0
2018-Jun-22 02:30N 37°56' E 023°39'0 0.0
2018-Jun-22 02:00N 37°56' E 023°39'0 0.0
2018-Jun-22 01:30N 37°56' E 023°39'0 0.0
2018-Jun-22 01:00N 37°56' E 023°39'0 0.0
2018-Jun-22 00:30N 37°56' E 023°39'0 0.0
2018-Jun-22 00:00N 37°56' E 023°39'0 0.0
2018-Jun-21 23:30N 37°56' E 023°39'0 0.0
2018-Jun-21 23:00N 37°56' E 023°39'0 0.0
2018-Jun-21 22:30N 37°56' E 023°39'0 0.0
2018-Jun-21 22:00N 37°56' E 023°39'0 0.0
2018-Jun-21 21:30N 37°56' E 023°39'0 0.0
2018-Jun-21 21:00N 37°56' E 023°39'0 0.0
2018-Jun-21 20:30N 37°56' E 023°39'0 0.0
2018-Jun-21 19:59N 37°56' E 023°39'0 0.0
2018-Jun-21 19:30N 37°56' E 023°39'0 0.0
2018-Jun-21 19:00N 37°56' E 023°39'0 0.0
2018-Jun-21 18:30N 37°56' E 023°39'0 0.0
2018-Jun-21 18:00N 37°56' E 023°39'0 0.0
2018-Jun-21 17:30N 37°56' E 023°39'0 0.0
2018-Jun-21 17:00N 37°56' E 023°39'0 0.0
2018-Jun-21 16:30N 37°56' E 023°39'0 0.0
2018-Jun-21 16:00N 37°56' E 023°39'0 0.0
2018-Jun-21 15:30N 37°56' E 023°39'0 0.0
2018-Jun-21 15:00N 37°56' E 023°39'0 0.0
2018-Jun-21 14:30N 37°56' E 023°39'0 0.0
2018-Jun-21 14:00N 37°56' E 023°39'0 0.0
2018-Jun-21 13:29N 37°56' E 023°39'0 0.0
2018-Jun-21 13:00N 37°56' E 023°39'0 0.0
2018-Jun-21 12:30N 37°56' E 023°39'0 0.0
2018-Jun-21 12:00N 37°56' E 023°39'0 0.0
2018-Jun-21 11:30N 37°56' E 023°39'0 0.0
2018-Jun-21 11:00N 37°56' E 023°39'0 0.0
2018-Jun-21 10:29N 37°56' E 023°39'0 0.0
2018-Jun-21 10:00N 37°56' E 023°39'0 0.0
2018-Jun-21 09:30N 37°56' E 023°39'0 0.0
2018-Jun-21 09:00N 37°56' E 023°39'0 0.0
2018-Jun-21 08:30N 37°56' E 023°39'0 0.0
2018-Jun-21 07:59N 37°56' E 023°39'0 0.0
2018-Jun-21 07:30N 37°56' E 023°39'0 0.0
2018-Jun-21 07:00N 37°56' E 023°39'0 0.0
2018-Jun-21 06:30N 37°56' E 023°39'0 0.0
2018-Jun-21 06:00N 37°56' E 023°39'0 0.0
2018-Jun-21 05:30N 37°56' E 023°39'0 0.0
2018-Jun-21 05:00N 37°56' E 023°39'0 0.0
2018-Jun-21 04:30N 37°56' E 023°39'0 0.0
2018-Jun-21 04:00N 37°56' E 023°39'0 0.0
2018-Jun-21 03:30N 37°56' E 023°39'0 0.0
2018-Jun-21 03:00N 37°56' E 023°39'0 0.0
2018-Jun-21 02:30N 37°56' E 023°39'0 0.0
2018-Jun-21 02:00N 37°56' E 023°39'0 0.0
2018-Jun-21 01:30N 37°56' E 023°39'0 0.0
2018-Jun-21 01:00N 37°56' E 023°39'0 0.0
2018-Jun-21 00:30N 37°56' E 023°39'0 0.0
2018-Jun-21 00:00N 37°56' E 023°39'0 0.0
2018-Jun-20 23:30N 37°56' E 023°39'0 0.0
2018-Jun-20 23:00N 37°56' E 023°39'0 0.0
2018-Jun-20 22:30N 37°56' E 023°39'0 0.0
2018-Jun-20 22:00N 37°56' E 023°39'0 0.0
2018-Jun-20 21:30N 37°56' E 023°39'0 0.0
2018-Jun-20 21:00N 37°56' E 023°39'0 0.0
2018-Jun-20 20:30N 37°56' E 023°39'0 0.0
2018-Jun-20 20:00N 37°56' E 023°39'0 0.0
2018-Jun-20 19:30N 37°56' E 023°39'0 0.0
2018-Jun-20 19:00N 37°56' E 023°39'0 0.0
2018-Jun-20 18:30N 37°56' E 023°39'0 0.0
2018-Jun-20 18:00N 37°56' E 023°39'0 0.0
2018-Jun-20 17:30N 37°56' E 023°39'0 0.0
2018-Jun-20 17:00N 37°56' E 023°39'0 0.0
2018-Jun-20 16:30N 37°56' E 023°39'0 0.0
2018-Jun-20 16:00N 37°56' E 023°39'0 0.0
2018-Jun-20 15:30N 37°56' E 023°39'0 0.0
2018-Jun-20 15:00N 37°56' E 023°39'0 0.0
2018-Jun-20 14:30N 37°56' E 023°39'0 0.0
2018-Jun-20 14:00N 37°56' E 023°39'0 0.0
2018-Jun-20 13:30N 37°56' E 023°39'0 0.0
2018-Jun-20 13:00N 37°56' E 023°39'0 0.0
2018-Jun-20 12:30N 37°56' E 023°39'0 0.0
2018-Jun-20 12:00N 37°56' E 023°39'0 0.0
2018-Jun-20 11:30N 37°56' E 023°39'0 0.0
2018-Jun-20 11:00N 37°56' E 023°39'0 0.0
2018-Jun-20 10:30N 37°56' E 023°39'0 0.0
2018-Jun-20 10:00N 37°56' E 023°39'0 0.0
2018-Jun-20 09:30N 37°56' E 023°39'0 0.0
2018-Jun-20 09:00N 37°56' E 023°39'0 0.0
2018-Jun-20 08:30N 37°56' E 023°39'0 0.0
2018-Jun-20 08:00N 37°56' E 023°39'0 0.0
2018-Jun-20 07:30N 37°56' E 023°39'0 0.0
2018-Jun-20 07:00N 37°56' E 023°39'0 0.0
2018-Jun-20 06:30N 37°56' E 023°39'0 0.0
2018-Jun-20 06:00N 37°56' E 023°39'0 0.0
2018-Jun-20 05:30N 37°56' E 023°39'0 0.0
2018-Jun-20 05:00N 37°56' E 023°39'0 0.0
2018-Jun-20 04:30N 37°56' E 023°39'0 0.0
2018-Jun-20 04:00N 37°56' E 023°39'0 0.0
2018-Jun-20 03:30N 37°56' E 023°39'0 0.0
2018-Jun-20 03:00N 37°56' E 023°39'0 0.0
2018-Jun-20 02:30N 37°56' E 023°39'0 0.0
2018-Jun-20 02:00N 37°56' E 023°39'0 0.0
2018-Jun-20 01:30N 37°56' E 023°39'0 0.0
2018-Jun-20 01:00N 37°56' E 023°39'0 0.0
2018-Jun-20 00:30N 37°56' E 023°39'0 0.0
2018-Jun-20 00:00N 37°56' E 023°39'0 0.0
2018-Jun-19 23:30N 37°56' E 023°39'0 0.0
2018-Jun-19 23:00N 37°56' E 023°39'0 0.0
2018-Jun-19 22:30N 37°56' E 023°39'0 0.0
2018-Jun-19 22:00N 37°56' E 023°39'0 0.0
2018-Jun-19 21:30N 37°56' E 023°39'0 0.0
2018-Jun-19 21:00N 37°56' E 023°39'0 0.0
2018-Jun-19 20:30N 37°56' E 023°39'0 0.0
2018-Jun-19 20:00N 37°56' E 023°39'0 0.0
2018-Jun-19 19:30N 37°56' E 023°39'0 0.0
2018-Jun-19 19:00N 37°56' E 023°39'0 0.0
2018-Jun-19 18:30N 37°56' E 023°39'0 0.0
2018-Jun-19 18:00N 37°56' E 023°39'0 0.0
2018-Jun-19 17:30N 37°56' E 023°39'0 0.0
2018-Jun-19 17:00N 37°56' E 023°39'0 0.0
2018-Jun-19 16:30N 37°56' E 023°39'0 0.0
2018-Jun-19 16:00N 37°56' E 023°39'0 0.0
2018-Jun-19 15:30N 37°56' E 023°39'0 0.0
2018-Jun-19 15:00N 37°56' E 023°39'0 0.0
2018-Jun-19 14:30N 37°56' E 023°39'0 0.0
2018-Jun-19 14:00N 37°56' E 023°39'0 0.0
2018-Jun-19 13:30N 37°56' E 023°39'0 0.0
2018-Jun-19 13:00N 37°56' E 023°39'0 0.0
2018-Jun-19 12:30N 37°56' E 023°39'0 0.0
2018-Jun-19 12:00N 37°56' E 023°39'0 0.0
2018-Jun-19 11:30N 37°56' E 023°39'0 0.0
2018-Jun-19 11:00N 37°56' E 023°39'0 0.0
2018-Jun-19 10:30N 37°56' E 023°39'0 0.0
2018-Jun-19 10:00N 37°56' E 023°39'0 0.0
2018-Jun-19 09:30N 37°56' E 023°39'0 0.0
2018-Jun-19 09:00N 37°56' E 023°39'0 0.0
2018-Jun-19 08:30N 37°56' E 023°39'0 0.0
2018-Jun-19 08:00N 37°56' E 023°39'0 0.0
2018-Jun-19 07:30N 37°56' E 023°39'0 0.0
2018-Jun-19 07:00N 37°56' E 023°39'0 0.0
2018-Jun-19 06:30N 37°56' E 023°39'0 0.0
2018-Jun-19 06:00N 37°56' E 023°39'0 0.0
2018-Jun-19 05:30N 37°56' E 023°39'0 0.0
2018-Jun-19 05:00N 37°56' E 023°39'0 0.0
2018-Jun-19 04:30N 37°56' E 023°39'0 0.0
2018-Jun-19 04:00N 37°56' E 023°39'0 0.0
2018-Jun-19 03:30N 37°56' E 023°39'0 0.0
2018-Jun-19 03:00N 37°56' E 023°39'0 0.0
2018-Jun-19 02:30N 37°56' E 023°39'0 0.0
2018-Jun-19 02:00N 37°56' E 023°39'0 0.0
2018-Jun-19 01:30N 37°56' E 023°39'0 0.0
2018-Jun-19 01:00N 37°56' E 023°39'0 0.0
2018-Jun-19 00:30N 37°56' E 023°39'0 0.0
2018-Jun-19 00:00N 37°56' E 023°39'0 0.0
2018-Jun-18 23:30N 37°56' E 023°39'0 0.0
2018-Jun-18 23:00N 37°56' E 023°39'0 0.0
2018-Jun-18 22:30N 37°56' E 023°39'0 0.0
2018-Jun-18 22:00N 37°56' E 023°39'0 0.0
2018-Jun-18 21:30N 37°56' E 023°39'0 0.0
2018-Jun-18 21:00N 37°56' E 023°39'0 0.0
2018-Jun-18 20:30N 37°56' E 023°39'0 0.0
2018-Jun-18 20:00N 37°56' E 023°39'0 0.0
2018-Jun-18 19:30N 37°56' E 023°39'0 0.0
2018-Jun-18 19:00N 37°56' E 023°39'0 0.0
2018-Jun-18 18:30N 37°56' E 023°39'0 0.0
2018-Jun-18 18:00N 37°56' E 023°39'0 0.0
2018-Jun-18 17:30N 37°56' E 023°39'0 0.0
2018-Jun-18 17:00N 37°56' E 023°39'0 0.0
2018-Jun-18 16:30N 37°56' E 023°39'0 0.0
2018-Jun-18 16:00N 37°56' E 023°39'0 0.0
2018-Jun-18 15:30N 37°56' E 023°39'0 0.0
2018-Jun-18 15:00N 37°56' E 023°39'0 0.0
2018-Jun-18 14:30N 37°56' E 023°39'0 0.0
2018-Jun-18 14:00N 37°56' E 023°39'0 0.0
2018-Jun-18 13:30N 37°56' E 023°39'0 0.0
2018-Jun-18 13:00N 37°56' E 023°39'0 0.0
2018-Jun-18 12:30N 37°56' E 023°39'0 0.0
2018-Jun-18 12:00N 37°56' E 023°39'0 0.0
2018-Jun-18 11:30N 37°56' E 023°39'0 0.0
2018-Jun-18 11:00N 37°56' E 023°39'0 0.0
2018-Jun-18 10:30N 37°56' E 023°39'0 0.0
2018-Jun-18 10:00N 37°56' E 023°39'0 0.0
2018-Jun-18 09:30N 37°56' E 023°39'0 0.0
2018-Jun-18 09:00N 37°56' E 023°39'0 0.0
2018-Jun-18 08:30N 37°56' E 023°39'0 0.0
2018-Jun-18 08:00N 37°56' E 023°39'0 0.0
2018-Jun-18 07:30N 37°56' E 023°39'0 0.0
2018-Jun-18 07:00N 37°56' E 023°39'0 0.0
2018-Jun-18 06:30N 37°56' E 023°39'0 0.0
2018-Jun-18 06:00N 37°56' E 023°39'0 0.0
2018-Jun-18 05:30N 37°56' E 023°39'0 0.0
2018-Jun-18 05:00N 37°56' E 023°39'0 0.0
2018-Jun-18 04:30N 37°56' E 023°39'0 0.0
2018-Jun-18 04:00N 37°56' E 023°39'0 0.0
2018-Jun-18 03:30N 37°56' E 023°39'0 0.0
2018-Jun-18 03:00N 37°56' E 023°39'0 0.0
2018-Jun-18 02:30N 37°56' E 023°39'0 0.0
2018-Jun-18 02:00N 37°56' E 023°39'0 0.0
2018-Jun-18 01:30N 37°56' E 023°39'0 0.0
2018-Jun-18 01:00N 37°56' E 023°39'0 0.0
2018-Jun-18 00:30N 37°56' E 023°39'0 0.0
2018-Jun-18 00:00N 37°56' E 023°39'0 0.0
2018-Jun-17 23:30N 37°56' E 023°39'0 0.0
2018-Jun-17 23:00N 37°56' E 023°39'0 0.0
2018-Jun-17 22:30N 37°56' E 023°39'0 0.0
2018-Jun-17 22:00N 37°56' E 023°39'0 0.0
2018-Jun-17 21:30N 37°56' E 023°39'0 0.0
2018-Jun-17 21:00N 37°56' E 023°39'0 0.0
2018-Jun-17 20:30N 37°56' E 023°39'0 0.0
2018-Jun-17 20:00N 37°56' E 023°39'0 0.0
2018-Jun-17 19:30N 37°56' E 023°39'0 0.0
2018-Jun-17 19:00N 37°56' E 023°39'0 0.0
2018-Jun-17 18:30N 37°56' E 023°39'0 0.0
2018-Jun-17 18:00N 37°56' E 023°39'0 0.0
2018-Jun-17 17:30N 37°56' E 023°39'0 0.0
2018-Jun-17 17:00N 37°56' E 023°39'0 0.0
2018-Jun-17 16:30N 37°56' E 023°39'0 0.0
2018-Jun-17 16:00N 37°56' E 023°39'0 0.0
2018-Jun-17 15:30N 37°56' E 023°39'0 0.0
2018-Jun-17 15:00N 37°56' E 023°39'0 0.2
2018-Jun-17 14:30N 37°56' E 023°39'611.3
2018-Jun-17 14:00N 37°51' E 023°42'5714.5
2018-Jun-17 10:03N 37°22' E 024°44'114.9
2018-Jun-17 10:00N 37°22' E 024°45'815.3
2018-Jun-17 09:30N 37°19' E 024°54'815.2
2018-Jun-17 09:00N 37°16' E 025°03'714.9
2018-Jun-17 08:30N 37°13' E 025°11'714.3
2018-Jun-17 08:00N 37°08' E 025°19'5 9.1
2018-Jun-17 07:30N 37°04' E 025°21'0 0.0
2018-Jun-17 07:00N 37°04' E 025°21'0 0.0
2018-Jun-17 06:30N 37°04' E 025°21'4 8.7
2018-Jun-17 06:00N 36°60' E 025°22'5 0.3
2018-Jun-16 13:06N 36°59' E 025°16'114.0
2018-Jun-16 13:00N 37°00' E 025°16'714.6
2018-Jun-16 12:31N 37°08' E 025°18'3 6.6
2018-Jun-16 12:00N 37°08' E 025°14'0 0.1
2018-Jun-16 11:29N 37°08' E 025°14'0 0.0
2018-Jun-16 11:00N 37°08' E 025°14'0 0.1
2018-Jun-16 10:30N 37°08' E 025°14'0 0.0
2018-Jun-16 10:00N 37°08' E 025°14'0 0.2
2018-Jun-16 09:30N 37°08' E 025°14'0 0.1
2018-Jun-16 09:00N 37°08' E 025°14'0 0.1
2018-Jun-16 08:30N 37°08' E 025°14'0 0.1
2018-Jun-16 08:00N 37°08' E 025°14'0 0.0
2018-Jun-16 07:30N 37°08' E 025°14'0 0.1
2018-Jun-16 07:00N 37°08' E 025°14'0 0.1
2018-Jun-16 06:30N 37°08' E 025°14'0 0.0
2018-Jun-16 06:00N 37°08' E 025°14'0 0.0
2018-Jun-16 05:30N 37°08' E 025°14'0 0.0
2018-Jun-16 05:00N 37°08' E 025°14'0 0.1
2018-Jun-16 04:30N 37°08' E 025°14'0 0.0
2018-Jun-16 04:00N 37°08' E 025°14'0 0.0
2018-Jun-16 03:30N 37°08' E 025°14'0 0.0
2018-Jun-16 03:00N 37°08' E 025°14'0 0.0
2018-Jun-16 02:29N 37°08' E 025°14'0 0.0
2018-Jun-16 02:00N 37°08' E 025°14'0 0.0
2018-Jun-16 01:30N 37°08' E 025°14'0 0.0
2018-Jun-16 01:00N 37°08' E 025°14'0 0.0
2018-Jun-16 00:29N 37°08' E 025°14'0 0.0
2018-Jun-16 00:00N 37°08' E 025°14'0 0.0
2018-Jun-15 23:30N 37°08' E 025°14'0 0.0
2018-Jun-15 23:00N 37°08' E 025°14'0 0.0
2018-Jun-15 22:30N 37°08' E 025°14'0 0.0
2018-Jun-15 22:00N 37°08' E 025°14'0 0.0
2018-Jun-15 21:30N 37°08' E 025°14'0 0.0
2018-Jun-15 21:00N 37°08' E 025°14'0 0.0
2018-Jun-15 20:30N 37°08' E 025°14'0 0.0
2018-Jun-15 20:00N 37°08' E 025°14'0 0.0
2018-Jun-15 19:30N 37°08' E 025°14'0 0.1
2018-Jun-15 18:59N 37°08' E 025°14'0 0.0
2018-Jun-15 18:29N 37°08' E 025°14'0 0.0
2018-Jun-15 18:00N 37°08' E 025°14'0 0.0
2018-Jun-15 17:30N 37°08' E 025°14'3 6.6
2018-Jun-15 17:00N 37°10' E 025°17'713.6
2018-Jun-15 16:31N 37°04' E 025°20'1 1.2
2018-Jun-15 15:59N 37°04' E 025°21'0 0.0
2018-Jun-15 15:30N 37°04' E 025°21'0 0.0
2018-Jun-15 14:59N 37°04' E 025°21'2 4.0
2018-Jun-15 14:30N 37°05' E 025°19'713.3
2018-Jun-15 14:00N 37°11' E 025°15'1015.0
2018-Jun-15 13:19N 37°17' E 025°04'514.6
2018-Jun-15 13:00N 37°19' E 024°59'1014.4
2018-Jun-15 12:20N 37°24' E 024°48'5414.2
2018-Jun-15 08:31N 37°45' E 023°45'014.1
2018-Jun-15 08:30N 37°45' E 023°45'714.8
2018-Jun-15 08:00N 37°52' E 023°41'5 9.7
2018-Jun-15 07:30N 37°56' E 023°39'0 0.0
2018-Jun-15 07:00N 37°56' E 023°39'0 0.0
2018-Jun-15 06:30N 37°56' E 023°39'0 0.0
2018-Jun-15 06:00N 37°56' E 023°39'0 0.0
2018-Jun-15 05:30N 37°56' E 023°39'0 0.0
2018-Jun-15 05:00N 37°56' E 023°39'0 0.0
2018-Jun-15 04:31N 37°56' E 023°39'0 0.0
2018-Jun-15 04:00N 37°56' E 023°39'0 0.0
2018-Jun-15 03:30N 37°56' E 023°39'0 0.0
2018-Jun-15 03:00N 37°56' E 023°39'0 0.0
2018-Jun-15 02:30N 37°56' E 023°39'0 0.0
2018-Jun-15 02:00N 37°56' E 023°39'0 0.0
2018-Jun-15 01:30N 37°56' E 023°39'0 0.0
2018-Jun-15 01:00N 37°56' E 023°39'0 0.0
2018-Jun-15 00:30N 37°56' E 023°39'  
Track history (hours):
 
Tides and Currents Weather Stations Pressure Air Temp Water Temp Dewpoint Dewpoint Depression Visibility Wind Speed Wind Dir Waves Ship Positions

Sunday

Last reported at 2018-Jun-25 00:30 UTC. Time now 2018-Jun-25 00:41 UTC.
Position N 37°56' E 023°39'.

Length 58 m; draft 3.4 m.

Type: Pleasure craft. MMSI: 240559000.

Date/timePositionNaut miles runAvg speedWind from/ knotsBaromVisibWave heightAir tempDewpointWater temp
2018-Jun-25 00:30N 37°56' E 023°39'0 0.0
2018-Jun-25 00:00N 37°56' E 023°39'0 0.0
2018-Jun-24 23:30N 37°56' E 023°39'0 0.0
2018-Jun-24 23:00N 37°56' E 023°39'0 0.0
2018-Jun-24 22:30N 37°56' E 023°39'0 0.0
2018-Jun-24 22:00N 37°56' E 023°39'0 0.0
2018-Jun-24 21:30N 37°56' E 023°39'0 0.0
2018-Jun-24 21:00N 37°56' E 023°39'0 0.0
2018-Jun-24 20:30N 37°56' E 023°39'0 0.0
2018-Jun-24 20:00N 37°56' E 023°39'0 0.0
2018-Jun-24 19:30N 37°56' E 023°39'0 0.0
2018-Jun-24 19:00N 37°56' E 023°39'0 0.0
2018-Jun-24 18:30N 37°56' E 023°39'0 0.0
2018-Jun-24 18:00N 37°56' E 023°39'0 0.0
2018-Jun-24 17:30N 37°56' E 023°39'0 0.0
2018-Jun-24 17:00N 37°56' E 023°39'0 0.0
2018-Jun-24 16:30N 37°56' E 023°39'0 0.1
2018-Jun-24 16:00N 37°56' E 023°39'3 6.4
2018-Jun-24 15:30N 37°53' E 023°38'714.9
2018-Jun-24 15:00N 37°46' E 023°35'714.3
2018-Jun-24 14:30N 37°40' E 023°29'1 0.1
2018-Jun-24 05:44N 37°40' E 023°28'314.2
2018-Jun-24 05:30N 37°37' E 023°30'17 1.4
2018-Jun-23 18:03N 37°21' E 023°27'4 0.1
2018-Jun-22 15:38N 37°25' E 023°29'214.6
2018-Jun-22 15:30N 37°25' E 023°31'713.8
2018-Jun-22 15:00N 37°31' E 023°35'714.7
2018-Jun-22 14:31N 37°39' E 023°35'714.7
2018-Jun-22 14:00N 37°46' E 023°37'714.4
2018-Jun-22 13:30N 37°53' E 023°39'3 5.9
2018-Jun-22 13:00N 37°56' E 023°39'0 0.0
2018-Jun-22 12:30N 37°56' E 023°39'0 0.0
2018-Jun-22 12:00N 37°56' E 023°39'0 0.0
2018-Jun-22 11:30N 37°56' E 023°39'0 0.0
2018-Jun-22 11:00N 37°56' E 023°39'0 0.0
2018-Jun-22 10:30N 37°56' E 023°39'0 0.0
2018-Jun-22 10:00N 37°56' E 023°39'0 0.0
2018-Jun-22 09:30N 37°56' E 023°39'0 0.0
2018-Jun-22 09:00N 37°56' E 023°39'0 0.0
2018-Jun-22 08:30N 37°56' E 023°39'0 0.0
2018-Jun-22 08:00N 37°56' E 023°39'0 0.0
2018-Jun-22 07:30N 37°56' E 023°39'0 0.0
2018-Jun-22 07:00N 37°56' E 023°39'0 0.0
2018-Jun-22 06:30N 37°56' E 023°39'0 0.0
2018-Jun-22 06:00N 37°56' E 023°39'0 0.0
2018-Jun-22 05:30N 37°56' E 023°39'0 0.0
2018-Jun-22 05:00N 37°56' E 023°39'0 0.0
2018-Jun-22 04:30N 37°56' E 023°39'0 0.0
2018-Jun-22 04:00N 37°56' E 023°39'0 0.0
2018-Jun-22 03:30N 37°56' E 023°39'0 0.0
2018-Jun-22 03:00N 37°56' E 023°39'0 0.0
2018-Jun-22 02:30N 37°56' E 023°39'0 0.0
2018-Jun-22 02:00N 37°56' E 023°39'0 0.0
2018-Jun-22 01:30N 37°56' E 023°39'0 0.0
2018-Jun-22 01:00N 37°56' E 023°39'0 0.0
2018-Jun-22 00:30N 37°56' E 023°39'0 0.0
2018-Jun-22 00:00N 37°56' E 023°39'0 0.0
2018-Jun-21 23:30N 37°56' E 023°39'0 0.0
2018-Jun-21 23:00N 37°56' E 023°39'0 0.0
2018-Jun-21 22:30N 37°56' E 023°39'0 0.0
2018-Jun-21 22:00N 37°56' E 023°39'0 0.0
2018-Jun-21 21:30N 37°56' E 023°39'0 0.0
2018-Jun-21 21:00N 37°56' E 023°39'0 0.0
2018-Jun-21 20:30N 37°56' E 023°39'0 0.0
2018-Jun-21 19:59N 37°56' E 023°39'0 0.0
2018-Jun-21 19:30N 37°56' E 023°39'0 0.0
2018-Jun-21 19:00N 37°56' E 023°39'0 0.0
2018-Jun-21 18:30N 37°56' E 023°39'0 0.0
2018-Jun-21 18:00N 37°56' E 023°39'0 0.0
2018-Jun-21 17:30N 37°56' E 023°39'0 0.0
2018-Jun-21 17:00N 37°56' E 023°39'0 0.0
2018-Jun-21 16:30N 37°56' E 023°39'0 0.0
2018-Jun-21 16:00N 37°56' E 023°39'0 0.0
2018-Jun-21 15:30N 37°56' E 023°39'0 0.0
2018-Jun-21 15:00N 37°56' E 023°39'0 0.0
2018-Jun-21 14:30N 37°56' E 023°39'0 0.0
2018-Jun-21 14:00N 37°56' E 023°39'0 0.0
2018-Jun-21 13:29N 37°56' E 023°39'0 0.0
2018-Jun-21 13:00N 37°56' E 023°39'0 0.0
2018-Jun-21 12:30N 37°56' E 023°39'0 0.0
2018-Jun-21 12:00N 37°56' E 023°39'0 0.0
2018-Jun-21 11:30N 37°56' E 023°39'0 0.0
2018-Jun-21 11:00N 37°56' E 023°39'0 0.0
2018-Jun-21 10:29N 37°56' E 023°39'0 0.0
2018-Jun-21 10:00N 37°56' E 023°39'0 0.0
2018-Jun-21 09:30N 37°56' E 023°39'0 0.0
2018-Jun-21 09:00N 37°56' E 023°39'0 0.0
2018-Jun-21 08:30N 37°56' E 023°39'0 0.0
2018-Jun-21 07:59N 37°56' E 023°39'0 0.0
2018-Jun-21 07:30N 37°56' E 023°39'0 0.0
2018-Jun-21 07:00N 37°56' E 023°39'0 0.0
2018-Jun-21 06:30N 37°56' E 023°39'0 0.0
2018-Jun-21 06:00N 37°56' E 023°39'0 0.0
2018-Jun-21 05:30N 37°56' E 023°39'0 0.0
2018-Jun-21 05:00N 37°56' E 023°39'0 0.0
2018-Jun-21 04:30N 37°56' E 023°39'0 0.0
2018-Jun-21 04:00N 37°56' E 023°39'0 0.0
2018-Jun-21 03:30N 37°56' E 023°39'0 0.0
2018-Jun-21 03:00N 37°56' E 023°39'0 0.0
2018-Jun-21 02:30N 37°56' E 023°39'0 0.0
2018-Jun-21 02:00N 37°56' E 023°39'0 0.0
2018-Jun-21 01:30N 37°56' E 023°39'0 0.0
2018-Jun-21 01:00N 37°56' E 023°39'0 0.0
2018-Jun-21 00:30N 37°56' E 023°39'0 0.0
2018-Jun-21 00:00N 37°56' E 023°39'0 0.0
2018-Jun-20 23:30N 37°56' E 023°39'0 0.0
2018-Jun-20 23:00N 37°56' E 023°39'0 0.0
2018-Jun-20 22:30N 37°56' E 023°39'0 0.0
2018-Jun-20 22:00N 37°56' E 023°39'0 0.0
2018-Jun-20 21:30N 37°56' E 023°39'0 0.0
2018-Jun-20 21:00N 37°56' E 023°39'0 0.0
2018-Jun-20 20:30N 37°56' E 023°39'0 0.0
2018-Jun-20 20:00N 37°56' E 023°39'0 0.0
2018-Jun-20 19:30N 37°56' E 023°39'0 0.0
2018-Jun-20 19:00N 37°56' E 023°39'0 0.0
2018-Jun-20 18:30N 37°56' E 023°39'0 0.0
2018-Jun-20 18:00N 37°56' E 023°39'0 0.0
2018-Jun-20 17:30N 37°56' E 023°39'0 0.0
2018-Jun-20 17:00N 37°56' E 023°39'0 0.0
2018-Jun-20 16:30N 37°56' E 023°39'0 0.0
2018-Jun-20 16:00N 37°56' E 023°39'0 0.0
2018-Jun-20 15:30N 37°56' E 023°39'0 0.0
2018-Jun-20 15:00N 37°56' E 023°39'0 0.0
2018-Jun-20 14:30N 37°56' E 023°39'0 0.0
2018-Jun-20 14:00N 37°56' E 023°39'0 0.0
2018-Jun-20 13:30N 37°56' E 023°39'0 0.0
2018-Jun-20 13:00N 37°56' E 023°39'0 0.0
2018-Jun-20 12:30N 37°56' E 023°39'0 0.0
2018-Jun-20 12:00N 37°56' E 023°39'0 0.0
2018-Jun-20 11:30N 37°56' E 023°39'0 0.0
2018-Jun-20 11:00N 37°56' E 023°39'0 0.0
2018-Jun-20 10:30N 37°56' E 023°39'0 0.0
2018-Jun-20 10:00N 37°56' E 023°39'0 0.0
2018-Jun-20 09:30N 37°56' E 023°39'0 0.0
2018-Jun-20 09:00N 37°56' E 023°39'0 0.0
2018-Jun-20 08:30N 37°56' E 023°39'0 0.0
2018-Jun-20 08:00N 37°56' E 023°39'0 0.0
2018-Jun-20 07:30N 37°56' E 023°39'0 0.0
2018-Jun-20 07:00N 37°56' E 023°39'0 0.0
2018-Jun-20 06:30N 37°56' E 023°39'0 0.0
2018-Jun-20 06:00N 37°56' E 023°39'0 0.0
2018-Jun-20 05:30N 37°56' E 023°39'0 0.0
2018-Jun-20 05:00N 37°56' E 023°39'0 0.0
2018-Jun-20 04:30N 37°56' E 023°39'0 0.0
2018-Jun-20 04:00N 37°56' E 023°39'0 0.0
2018-Jun-20 03:30N 37°56' E 023°39'0 0.0
2018-Jun-20 03:00N 37°56' E 023°39'0 0.0
2018-Jun-20 02:30N 37°56' E 023°39'0 0.0
2018-Jun-20 02:00N 37°56' E 023°39'0 0.0
2018-Jun-20 01:30N 37°56' E 023°39'0 0.0
2018-Jun-20 01:00N 37°56' E 023°39'0 0.0
2018-Jun-20 00:30N 37°56' E 023°39'0 0.0
2018-Jun-20 00:00N 37°56' E 023°39'0 0.0
2018-Jun-19 23:30N 37°56' E 023°39'0 0.0
2018-Jun-19 23:00N 37°56' E 023°39'0 0.0
2018-Jun-19 22:30N 37°56' E 023°39'0 0.0
2018-Jun-19 22:00N 37°56' E 023°39'0 0.0
2018-Jun-19 21:30N 37°56' E 023°39'0 0.0
2018-Jun-19 21:00N 37°56' E 023°39'0 0.0
2018-Jun-19 20:30N 37°56' E 023°39'0 0.0
2018-Jun-19 20:00N 37°56' E 023°39'0 0.0
2018-Jun-19 19:30N 37°56' E 023°39'0 0.0
2018-Jun-19 19:00N 37°56' E 023°39'0 0.0
2018-Jun-19 18:30N 37°56' E 023°39'0 0.0
2018-Jun-19 18:00N 37°56' E 023°39'0 0.0
2018-Jun-19 17:30N 37°56' E 023°39'0 0.0
2018-Jun-19 17:00N 37°56' E 023°39'0 0.0
2018-Jun-19 16:30N 37°56' E 023°39'0 0.0
2018-Jun-19 16:00N 37°56' E 023°39'0 0.0
2018-Jun-19 15:30N 37°56' E 023°39'0 0.0
2018-Jun-19 15:00N 37°56' E 023°39'0 0.0
2018-Jun-19 14:30N 37°56' E 023°39'0 0.0
2018-Jun-19 14:00N 37°56' E 023°39'0 0.0
2018-Jun-19 13:30N 37°56' E 023°39'0 0.0
2018-Jun-19 13:00N 37°56' E 023°39'0 0.0
2018-Jun-19 12:30N 37°56' E 023°39'0 0.0
2018-Jun-19 12:00N 37°56' E 023°39'0 0.0
2018-Jun-19 11:30N 37°56' E 023°39'0 0.0
2018-Jun-19 11:00N 37°56' E 023°39'0 0.0
2018-Jun-19 10:30N 37°56' E 023°39'0 0.0
2018-Jun-19 10:00N 37°56' E 023°39'0 0.0
2018-Jun-19 09:30N 37°56' E 023°39'0 0.0
2018-Jun-19 09:00N 37°56' E 023°39'0 0.0
2018-Jun-19 08:30N 37°56' E 023°39'0 0.0
2018-Jun-19 08:00N 37°56' E 023°39'0 0.0
2018-Jun-19 07:30N 37°56' E 023°39'0 0.0
2018-Jun-19 07:00N 37°56' E 023°39'0 0.0
2018-Jun-19 06:30N 37°56' E 023°39'0 0.0
2018-Jun-19 06:00N 37°56' E 023°39'0 0.0
2018-Jun-19 05:30N 37°56' E 023°39'0 0.0
2018-Jun-19 05:00N 37°56' E 023°39'0 0.0
2018-Jun-19 04:30N 37°56' E 023°39'0 0.0
2018-Jun-19 04:00N 37°56' E 023°39'0 0.0
2018-Jun-19 03:30N 37°56' E 023°39'0 0.0
2018-Jun-19 03:00N 37°56' E 023°39'0 0.0
2018-Jun-19 02:30N 37°56' E 023°39'0 0.0
2018-Jun-19 02:00N 37°56' E 023°39'0 0.0
2018-Jun-19 01:30N 37°56' E 023°39'0 0.0
2018-Jun-19 01:00N 37°56' E 023°39'0 0.0
2018-Jun-19 00:30N 37°56' E 023°39'0 0.0
2018-Jun-19 00:00N 37°56' E 023°39'0 0.0
2018-Jun-18 23:30N 37°56' E 023°39'0 0.0
2018-Jun-18 23:00N 37°56' E 023°39'0 0.0
2018-Jun-18 22:30N 37°56' E 023°39'0 0.0
2018-Jun-18 22:00N 37°56' E 023°39'0 0.0
2018-Jun-18 21:30N 37°56' E 023°39'0 0.0
2018-Jun-18 21:00N 37°56' E 023°39'0 0.0
2018-Jun-18 20:30N 37°56' E 023°39'0 0.0
2018-Jun-18 20:00N 37°56' E 023°39'0 0.0
2018-Jun-18 19:30N 37°56' E 023°39'0 0.0
2018-Jun-18 19:00N 37°56' E 023°39'0 0.0
2018-Jun-18 18:30N 37°56' E 023°39'0 0.0
2018-Jun-18 18:00N 37°56' E 023°39'0 0.0
2018-Jun-18 17:30N 37°56' E 023°39'0 0.0
2018-Jun-18 17:00N 37°56' E 023°39'0 0.0
2018-Jun-18 16:30N 37°56' E 023°39'0 0.0
2018-Jun-18 16:00N 37°56' E 023°39'0 0.0
2018-Jun-18 15:30N 37°56' E 023°39'0 0.0
2018-Jun-18 15:00N 37°56' E 023°39'0 0.0
2018-Jun-18 14:30N 37°56' E 023°39'0 0.0
2018-Jun-18 14:00N 37°56' E 023°39'0 0.0
2018-Jun-18 13:30N 37°56' E 023°39'0 0.0
2018-Jun-18 13:00N 37°56' E 023°39'0 0.0
2018-Jun-18 12:30N 37°56' E 023°39'0 0.0
2018-Jun-18 12:00N 37°56' E 023°39'0 0.0
2018-Jun-18 11:30N 37°56' E 023°39'0 0.0
2018-Jun-18 11:00N 37°56' E 023°39'0 0.0
2018-Jun-18 10:30N 37°56' E 023°39'0 0.0
2018-Jun-18 10:00N 37°56' E 023°39'0 0.0
2018-Jun-18 09:30N 37°56' E 023°39'0 0.0
2018-Jun-18 09:00N 37°56' E 023°39'0 0.0
2018-Jun-18 08:30N 37°56' E 023°39'0 0.0
2018-Jun-18 08:00N 37°56' E 023°39'0 0.0
2018-Jun-18 07:30N 37°56' E 023°39'0 0.0
2018-Jun-18 07:00N 37°56' E 023°39'0 0.0
2018-Jun-18 06:30N 37°56' E 023°39'0 0.0
2018-Jun-18 06:00N 37°56' E 023°39'0 0.0
2018-Jun-18 05:30N 37°56' E 023°39'0 0.0
2018-Jun-18 05:00N 37°56' E 023°39'0 0.0
2018-Jun-18 04:30N 37°56' E 023°39'0 0.0
2018-Jun-18 04:00N 37°56' E 023°39'0 0.0
2018-Jun-18 03:30N 37°56' E 023°39'0 0.0
2018-Jun-18 03:00N 37°56' E 023°39'0 0.0
2018-Jun-18 02:30N 37°56' E 023°39'0 0.0
2018-Jun-18 02:00N 37°56' E 023°39'0 0.0
2018-Jun-18 01:30N 37°56' E 023°39'0 0.0
2018-Jun-18 01:00N 37°56' E 023°39'0 0.0
2018-Jun-18 00:30N 37°56' E 023°39'0 0.0
2018-Jun-18 00:00N 37°56' E 023°39'0 0.0
2018-Jun-17 23:30N 37°56' E 023°39'0 0.0
2018-Jun-17 23:00N 37°56' E 023°39'0 0.0
2018-Jun-17 22:30N 37°56' E 023°39'0 0.0
2018-Jun-17 22:00N 37°56' E 023°39'0 0.0
2018-Jun-17 21:30N 37°56' E 023°39'0 0.0
2018-Jun-17 21:00N 37°56' E 023°39'0 0.0
2018-Jun-17 20:30N 37°56' E 023°39'0 0.0
2018-Jun-17 20:00N 37°56' E 023°39'0 0.0
2018-Jun-17 19:30N 37°56' E 023°39'0 0.0
2018-Jun-17 19:00N 37°56' E 023°39'0 0.0
2018-Jun-17 18:30N 37°56' E 023°39'0 0.0
2018-Jun-17 18:00N 37°56' E 023°39'0 0.0
2018-Jun-17 17:30N 37°56' E 023°39'0 0.0
2018-Jun-17 17:00N 37°56' E 023°39'0 0.0
2018-Jun-17 16:30N 37°56' E 023°39'0 0.0
2018-Jun-17 16:00N 37°56' E 023°39'0 0.0
2018-Jun-17 15:30N 37°56' E 023°39'0 0.0
2018-Jun-17 15:00N 37°56' E 023°39'0 0.2
2018-Jun-17 14:30N 37°56' E 023°39'611.3
2018-Jun-17 14:00N 37°51' E 023°42'5714.5
2018-Jun-17 10:03N 37°22' E 024°44'114.9
2018-Jun-17 10:00N 37°22' E 024°45'815.3
2018-Jun-17 09:30N 37°19' E 024°54'815.2
2018-Jun-17 09:00N 37°16' E 025°03'714.9
2018-Jun-17 08:30N 37°13' E 025°11'714.3
2018-Jun-17 08:00N 37°08' E 025°19'5 9.1
2018-Jun-17 07:30N 37°04' E 025°21'0 0.0
2018-Jun-17 07:00N 37°04' E 025°21'0 0.0
2018-Jun-17 06:30N 37°04' E 025°21'4 8.7
2018-Jun-17 06:00N 36°60' E 025°22'5 0.3
2018-Jun-16 13:06N 36°59' E 025°16'114.0
2018-Jun-16 13:00N 37°00' E 025°16'714.6
2018-Jun-16 12:31N 37°08' E 025°18'3 6.6
2018-Jun-16 12:00N 37°08' E 025°14'0 0.1
2018-Jun-16 11:29N 37°08' E 025°14'0 0.0
2018-Jun-16 11:00N 37°08' E 025°14'0 0.1
2018-Jun-16 10:30N 37°08' E 025°14'0 0.0
2018-Jun-16 10:00N 37°08' E 025°14'0 0.2
2018-Jun-16 09:30N 37°08' E 025°14'0 0.1
2018-Jun-16 09:00N 37°08' E 025°14'0 0.1
2018-Jun-16 08:30N 37°08' E 025°14'0 0.1
2018-Jun-16 08:00N 37°08' E 025°14'0 0.0
2018-Jun-16 07:30N 37°08' E 025°14'0 0.1
2018-Jun-16 07:00N 37°08' E 025°14'0 0.1
2018-Jun-16 06:30N 37°08' E 025°14'0 0.0
2018-Jun-16 06:00N 37°08' E 025°14'0 0.0
2018-Jun-16 05:30N 37°08' E 025°14'0 0.0
2018-Jun-16 05:00N 37°08' E 025°14'0 0.1
2018-Jun-16 04:30N 37°08' E 025°14'0 0.0
2018-Jun-16 04:00N 37°08' E 025°14'0 0.0
2018-Jun-16 03:30N 37°08' E 025°14'0 0.0
2018-Jun-16 03:00N 37°08' E 025°14'0 0.0
2018-Jun-16 02:29N 37°08' E 025°14'0 0.0
2018-Jun-16 02:00N 37°08' E 025°14'0 0.0
2018-Jun-16 01:30N 37°08' E 025°14'0 0.0
2018-Jun-16 01:00N 37°08' E 025°14'0 0.0
2018-Jun-16 00:29N 37°08' E 025°14'0 0.0
2018-Jun-16 00:00N 37°08' E 025°14'0 0.0
2018-Jun-15 23:30N 37°08' E 025°14'0 0.0
2018-Jun-15 23:00N 37°08' E 025°14'0 0.0
2018-Jun-15 22:30N 37°08' E 025°14'0 0.0
2018-Jun-15 22:00N 37°08' E 025°14'0 0.0
2018-Jun-15 21:30N 37°08' E 025°14'0 0.0
2018-Jun-15 21:00N 37°08' E 025°14'0 0.0
2018-Jun-15 20:30N 37°08' E 025°14'0 0.0
2018-Jun-15 20:00N 37°08' E 025°14'0 0.0
2018-Jun-15 19:30N 37°08' E 025°14'0 0.1
2018-Jun-15 18:59N 37°08' E 025°14'0 0.0
2018-Jun-15 18:29N 37°08' E 025°14'0 0.0
2018-Jun-15 18:00N 37°08' E 025°14'0 0.0
2018-Jun-15 17:30N 37°08' E 025°14'3 6.6
2018-Jun-15 17:00N 37°10' E 025°17'713.6
2018-Jun-15 16:31N 37°04' E 025°20'1 1.2
2018-Jun-15 15:59N 37°04' E 025°21'0 0.0
2018-Jun-15 15:30N 37°04' E 025°21'0 0.0
2018-Jun-15 14:59N 37°04' E 025°21'2 4.0
2018-Jun-15 14:30N 37°05' E 025°19'713.3
2018-Jun-15 14:00N 37°11' E 025°15'1015.0
2018-Jun-15 13:19N 37°17' E 025°04'514.6
2018-Jun-15 13:00N 37°19' E 024°59'1014.4
2018-Jun-15 12:20N 37°24' E 024°48'5414.2
2018-Jun-15 08:31N 37°45' E 023°45'014.1
2018-Jun-15 08:30N 37°45' E 023°45'714.8
2018-Jun-15 08:00N 37°52' E 023°41'5 9.7
2018-Jun-15 07:30N 37°56' E 023°39'0 0.0
2018-Jun-15 07:00N 37°56' E 023°39'0 0.0
2018-Jun-15 06:30N 37°56' E 023°39'0 0.0
2018-Jun-15 06:00N 37°56' E 023°39'0 0.0
2018-Jun-15 05:30N 37°56' E 023°39'0 0.0
2018-Jun-15 05:00N 37°56' E 023°39'0 0.0
2018-Jun-15 04:31N 37°56' E 023°39'0 0.0
2018-Jun-15 04:00N 37°56' E 023°39'0 0.0
2018-Jun-15 03:30N 37°56' E 023°39'0 0.0
2018-Jun-15 03:00N 37°56' E 023°39'0 0.0
2018-Jun-15 02:30N 37°56' E 023°39'0 0.0
2018-Jun-15 02:00N 37°56' E 023°39'0 0.0
2018-Jun-15 01:30N 37°56' E 023°39'0 0.0
2018-Jun-15 01:00N 37°56' E 023°39'0 0.0
2018-Jun-15 00:30N 37°56' E 023°39'  

Dump ship's entire track history